Byrdstown, TN (38549)

3:46 PM CDT on September 02, 2015 (GMT -0500)
Highlands @ BSF | | Change Station
CLOSE
Current Station
Personal Weather Station
Location: Jamestown, TN
Elevation: 1637 ft
Nearby Weather Stations

Elev 1637 ft 36.49 °N, 84.86 °W | Updated 11 minutes ago

Clear
Clear
87.4 °F
Feels Like 90 °F
N
0.0
Wind Variable Wind from ESE

Today
High -- | Low -- °F
--% Chance of Precip.
Yesterday
High -- | Low -- °F
Precip. -- in
6:12 AM 7:07 PM
Waning Gibbous, 77% visible
Pressure 30.05 in
Visibility 10.0 miles
Clouds Clear
Heat Index 90 °F
Dew Point 66 °F
Humidity 50%
Rainfall 0.00 in
Snow Depth Not available.
UV 6 out of 12
Pollen 10.20 out of 12
Air Quality Not available.
Flu Activity Not available.
METAR KSRB 022035Z AUTO 31003KT 10SM CLR 33/21 A3005 RMK
Pressure 30.05 in
Visibility 10.0 miles
Clouds Clear
Heat Index 90 °F
Dew Point 66 °F
Humidity 50%
Rainfall 0.00 in
Snow Depth Not available.
UV 6 out of 12
Pollen 10.20 out of 12
Air Quality Not available.
Flu Activity Not available.
METAR KSRB 022035Z AUTO 31003KT 10SM CLR 33/21 A3005 RMK

10-Day Weather Forecast

×

Almanac

Astronomy

Sep. 02, 2015 Rise Set
Actual Time
Civil Twilight
Nautical Twilight
Astronomical Twilight
Moon
Length of Visible Light
Length of Day
Tomorrow will be .
, % of the Moon is Illuminated

Today's Extremes

State Highs State Lows

Community

WunderPhotos

Upload Photos

1,851,806 photos uploaded!

WunderBlogs® & News

Nearby

Air Quality

  Air Quality AQ Index Pollutant
Not available.

Snow Depth

Station Depth Elevation

Earthquake Activity

City Distance Mag. Time & Date
Minimum magnitude displayed is 2.5.

Coastal Water Temperatures

Place Temperature

Stations

Nearby Weather Stations

Station Location Temp. Windchill Dew Point Humidity Wind Precip. Elev Updated Type